createdAt,value
2022-12-12T00:02:29.667Z,7.20
2022-12-12T00:05:58.208Z,7.60
2022-12-12T00:09:25.807Z,7.80
2022-12-12T00:12:54.074Z,7.90
2022-12-12T00:16:23.172Z,7.40
2022-12-12T00:19:51.794Z,6.50
2022-12-12T00:23:20.219Z,6.50
2022-12-12T00:26:47.999Z,6.70
2022-12-12T00:30:16.451Z,5.90
2022-12-12T00:33:45.130Z,6.10
2022-12-12T00:37:12.955Z,5.80
2022-12-12T00:40:41.942Z,6.00
2022-12-12T00:44:15.160Z,5.50
2022-12-12T00:47:42.104Z,6.10
2022-12-12T00:51:17.462Z,5.80
2022-12-12T00:54:44.802Z,5.00
2022-12-12T00:58:15.239Z,5.30
2022-12-12T01:01:42.320Z,4.80
2022-12-12T01:05:11.203Z,5.30
2022-12-12T01:08:40.890Z,5.70
2022-12-12T01:12:09.003Z,5.00
2022-12-12T01:15:36.192Z,4.10
2022-12-12T01:19:07.052Z,4.80
2022-12-12T01:22:34.021Z,4.40
2022-12-12T01:26:06.600Z,4.70
2022-12-12T01:29:40.374Z,4.60
2022-12-12T01:33:08.245Z,4.20
2022-12-12T01:36:35.348Z,4.20
2022-12-12T01:40:02.635Z,4.50
2022-12-12T01:43:32.188Z,4.60
2022-12-12T01:47:00.487Z,4.30
2022-12-12T01:50:28.337Z,4.30
2022-12-12T01:54:04.391Z,4.40
2022-12-12T01:57:38.636Z,3.80
2022-12-12T02:01:04.976Z,4.40
2022-12-12T02:04:32.828Z,4.20
2022-12-12T02:08:03.055Z,3.90
2022-12-12T02:11:33.176Z,4.50
2022-12-12T02:15:00.507Z,4.70
2022-12-12T02:18:38.343Z,4.00
2022-12-12T02:22:16.418Z,4.10
2022-12-12T02:26:15.898Z,4.60
2022-12-12T02:30:14.017Z,4.20
2022-12-12T02:33:46.771Z,3.90
2022-12-12T02:37:22.662Z,4.10
2022-12-12T02:40:58.227Z,5.10
2022-12-12T02:44:31.747Z,5.70
2022-12-12T02:48:05.223Z,5.00
2022-12-12T02:51:34.739Z,5.20
2022-12-12T02:55:01.750Z,5.90
2022-12-12T02:58:28.756Z,4.60
2022-12-12T03:02:22.388Z,5.20
2022-12-12T03:06:16.551Z,4.30
2022-12-12T03:10:01.123Z,5.10
2022-12-12T03:13:38.419Z,4.50
2022-12-12T03:17:12.369Z,4.50
2022-12-12T03:20:46.756Z,4.10
2022-12-12T03:24:21.705Z,4.20
2022-12-12T03:27:55.912Z,4.70
2022-12-12T03:31:26.902Z,4.50
2022-12-12T03:34:59.496Z,4.70
2022-12-12T03:38:30.617Z,5.10
2022-12-12T03:42:04.197Z,4.80
2022-12-12T03:45:36.543Z,5.00
2022-12-12T03:49:08.597Z,5.00
2022-12-12T03:52:41.594Z,4.60
2022-12-12T03:56:14.325Z,4.00
2022-12-12T03:59:45.745Z,3.70
2022-12-12T04:03:21.239Z,3.60
2022-12-12T04:06:55.924Z,3.80
2022-12-12T04:10:42.731Z,3.30
2022-12-12T04:14:19.420Z,3.20
2022-12-12T04:17:58.127Z,3.50
2022-12-12T04:21:52.721Z,3.80
2022-12-12T04:25:28.586Z,3.10
2022-12-12T04:29:03.053Z,2.80
2022-12-12T04:32:34.495Z,3.10
2022-12-12T04:36:01.953Z,3.10
2022-12-12T04:39:30.658Z,2.70
2022-12-12T04:43:00.467Z,3.50
2022-12-12T04:46:30.435Z,3.10
2022-12-12T04:50:00.312Z,2.80
2022-12-12T04:53:35.237Z,3.20
2022-12-12T04:57:05.382Z,3.30
2022-12-12T05:00:37.419Z,2.70
2022-12-12T05:04:09.225Z,3.40
2022-12-12T05:07:44.302Z,3.20
2022-12-12T05:11:12.615Z,2.90
2022-12-12T05:14:39.876Z,2.80
2022-12-12T05:18:10.475Z,2.90
2022-12-12T05:21:36.762Z,3.40
2022-12-12T05:25:06.244Z,2.60
2022-12-12T05:28:33.366Z,2.80
2022-12-12T05:31:59.921Z,3.20
2022-12-12T05:35:27.411Z,2.90
2022-12-12T05:38:54.041Z,2.70
2022-12-12T05:42:20.816Z,2.80
2022-12-12T05:45:47.519Z,2.30
2022-12-12T05:49:14.164Z,3.80
2022-12-12T05:52:40.671Z,5.70
2022-12-12T05:56:10.825Z,4.90
2022-12-12T05:59:37.131Z,5.60
2022-12-12T06:03:03.480Z,4.80
2022-12-12T06:06:30.564Z,6.00
2022-12-12T06:09:57.112Z,6.40
2022-12-12T06:13:23.968Z,4.40
2022-12-12T06:16:50.749Z,5.80
2022-12-12T06:20:17.867Z,6.80
2022-12-12T06:23:46.029Z,7.40
2022-12-12T06:27:12.886Z,5.80
2022-12-12T06:30:39.765Z,6.50
2022-12-12T06:34:06.379Z,7.00
2022-12-12T06:37:33.422Z,7.10
2022-12-12T06:41:00.711Z,6.70
2022-12-12T06:44:27.597Z,7.80
2022-12-12T06:47:54.921Z,7.50
2022-12-12T06:51:23.585Z,9.60
2022-12-12T06:54:50.196Z,8.00
2022-12-12T06:58:17.969Z,5.50
2022-12-12T07:01:44.708Z,3.90
2022-12-12T07:05:12.925Z,5.80
2022-12-12T07:08:41.795Z,4.60
2022-12-12T07:12:09.115Z,6.20
2022-12-12T07:15:36.010Z,6.50
2022-12-12T07:19:03.037Z,6.20
2022-12-12T07:22:30.865Z,7.60
2022-12-12T07:25:58.192Z,7.10
2022-12-12T07:29:26.315Z,5.90
2022-12-12T07:32:53.909Z,5.40
2022-12-12T07:36:21.241Z,5.30
2022-12-12T07:39:47.775Z,6.00
2022-12-12T07:43:21.138Z,6.20
2022-12-12T07:46:48.330Z,5.50
2022-12-12T07:50:15.539Z,6.00
2022-12-12T07:53:43.304Z,5.40
2022-12-12T07:57:10.128Z,7.00
2022-12-12T08:00:37.618Z,6.10
2022-12-12T08:04:08.848Z,5.80
2022-12-12T08:07:35.695Z,4.90
2022-12-12T08:11:05.509Z,4.10
2022-12-12T08:14:32.513Z,5.20
2022-12-12T08:17:59.191Z,5.30
2022-12-12T08:21:26.904Z,10.20
2022-12-12T08:24:56.058Z,5.80
2022-12-12T08:28:22.761Z,4.60
2022-12-12T08:31:49.809Z,3.40
2022-12-12T08:35:17.527Z,3.40
2022-12-12T08:38:45.130Z,3.40
2022-12-12T08:42:13.420Z,2.90
2022-12-12T08:45:40.569Z,3.30
2022-12-12T08:49:08.622Z,2.90
2022-12-12T08:52:35.394Z,3.10
2022-12-12T08:56:02.360Z,3.80
2022-12-12T08:59:28.774Z,2.60
2022-12-12T09:02:55.902Z,2.30
2022-12-12T09:06:23.616Z,3.00
2022-12-12T09:09:50.310Z,3.60
2022-12-12T09:13:16.676Z,3.40
2022-12-12T09:16:45.602Z,2.80
2022-12-12T09:20:13.338Z,3.10
2022-12-12T09:23:40.541Z,3.00
2022-12-12T09:27:07.589Z,3.70
2022-12-12T09:30:34.635Z,4.50
2022-12-12T09:34:04.498Z,6.40
2022-12-12T09:37:33.131Z,4.60
2022-12-12T09:41:02.842Z,8.50
2022-12-12T09:44:29.656Z,4.70
2022-12-12T09:48:00.694Z,3.80
2022-12-12T09:51:27.897Z,3.10
2022-12-12T09:54:54.972Z,3.30
2022-12-12T09:58:28.524Z,4.00
2022-12-12T10:02:07.371Z,4.50
2022-12-12T10:05:43.572Z,3.10
2022-12-12T10:09:32.736Z,3.60
2022-12-12T10:13:01.049Z,3.80
2022-12-12T10:16:31.220Z,3.30
2022-12-12T10:20:01.035Z,3.80
2022-12-12T10:23:35.585Z,3.30
2022-12-12T10:27:11.097Z,2.90
2022-12-12T10:30:48.482Z,3.00
2022-12-12T10:34:29.544Z,3.20
2022-12-12T10:38:08.450Z,3.50
2022-12-12T10:41:45.018Z,4.30
2022-12-12T10:45:28.652Z,4.30
2022-12-12T10:48:56.430Z,4.00
2022-12-12T10:52:24.421Z,3.70
2022-12-12T10:55:55.144Z,4.30
2022-12-12T10:59:25.547Z,4.50
2022-12-12T11:02:56.859Z,4.80
2022-12-12T11:06:34.711Z,4.50
2022-12-12T11:10:02.483Z,4.80
2022-12-12T11:13:30.847Z,4.50
2022-12-12T11:16:57.689Z,4.50
2022-12-12T11:20:24.792Z,5.30
2022-12-12T11:23:55.865Z,5.50
2022-12-12T11:27:28.043Z,4.40
2022-12-12T11:31:25.337Z,5.40
2022-12-12T11:34:58.906Z,5.00
2022-12-12T11:38:30.332Z,4.60
2022-12-12T11:42:06.119Z,4.40
2022-12-12T11:45:34.895Z,3.40
2022-12-12T11:49:05.412Z,4.40
2022-12-12T11:52:33.690Z,3.90
2022-12-12T11:56:14.071Z,4.00
2022-12-12T12:00:06.165Z,3.00
2022-12-12T12:03:54.059Z,6.30
2022-12-12T12:07:44.170Z,4.50
2022-12-12T12:11:23.222Z,4.70
2022-12-12T12:15:22.630Z,6.20
2022-12-12T12:19:04.376Z,4.60
2022-12-12T12:22:46.955Z,4.80
2022-12-12T12:26:21.217Z,5.20
2022-12-12T12:30:28.000Z,5.10
2022-12-12T12:34:13.304Z,7.50
2022-12-12T12:37:51.376Z,7.30
2022-12-12T12:41:33.100Z,6.00
2022-12-12T12:45:06.322Z,4.80
2022-12-12T12:48:39.015Z,4.60
2022-12-12T12:52:12.100Z,4.60
2022-12-12T12:55:46.115Z,4.80
2022-12-12T12:59:20.255Z,6.20
2022-12-12T13:02:56.836Z,6.00
2022-12-12T13:06:35.313Z,5.50
2022-12-12T13:10:10.702Z,5.30
2022-12-12T13:13:41.831Z,6.30
2022-12-12T13:17:15.615Z,5.10
2022-12-12T13:24:15.781Z,5.70
2022-12-12T13:27:47.027Z,6.30
2022-12-12T13:31:33.811Z,6.30
2022-12-12T13:35:07.645Z,5.00
2022-12-12T13:38:36.403Z,4.90
2022-12-12T13:42:05.795Z,4.00
2022-12-12T13:45:45.114Z,4.90
2022-12-12T13:49:29.136Z,4.30
2022-12-12T13:56:45.061Z,5.70
2022-12-12T14:00:34.903Z,4.90
2022-12-12T14:04:04.183Z,5.40
2022-12-12T14:07:31.207Z,5.40
2022-12-12T14:11:04.894Z,4.80
2022-12-12T14:14:37.062Z,3.80
2022-12-12T14:18:05.301Z,4.00
2022-12-12T14:21:44.351Z,4.70
2022-12-12T14:25:22.258Z,5.20
2022-12-12T14:28:51.492Z,5.80
2022-12-12T14:32:48.885Z,5.70
2022-12-12T14:36:33.041Z,5.10
2022-12-12T14:40:12.681Z,7.40
2022-12-12T14:43:48.674Z,6.40
2022-12-12T14:47:35.870Z,6.00
2022-12-12T14:51:10.567Z,6.80
2022-12-12T14:54:39.027Z,9.40
2022-12-12T14:58:10.875Z,6.30
2022-12-12T15:01:41.053Z,6.60
2022-12-12T15:05:10.318Z,5.90
2022-12-12T15:08:39.057Z,6.80
2022-12-12T15:12:17.639Z,4.50
2022-12-12T15:15:45.825Z,7.70
2022-12-12T15:19:19.848Z,6.10
2022-12-12T15:22:57.417Z,6.60
2022-12-12T15:26:31.508Z,8.60
2022-12-12T15:30:00.042Z,8.30
2022-12-12T15:33:29.150Z,7.20
2022-12-12T15:36:57.177Z,9.30
2022-12-12T15:40:30.144Z,8.70
2022-12-12T15:47:25.140Z,7.10
2022-12-12T15:50:58.161Z,8.20
2022-12-12T15:54:27.315Z,8.90
2022-12-12T15:57:55.198Z,7.80
2022-12-12T16:01:26.502Z,8.00
2022-12-12T16:05:02.049Z,7.00
2022-12-12T16:08:48.937Z,8.50
2022-12-12T16:12:35.842Z,7.40
2022-12-12T16:16:43.699Z,11.00
2022-12-12T16:20:15.934Z,7.10
2022-12-12T16:23:48.737Z,6.60
2022-12-12T16:27:17.893Z,8.20
2022-12-12T16:31:07.094Z,6.80
2022-12-12T16:34:36.872Z,7.00
2022-12-12T16:38:12.802Z,6.50
2022-12-12T16:41:43.053Z,7.20
2022-12-12T16:45:14.155Z,7.60
2022-12-12T16:48:54.079Z,7.90
2022-12-12T16:52:23.449Z,9.10
2022-12-12T16:55:52.569Z,10.20
2022-12-12T16:59:20.728Z,11.20
2022-12-12T17:02:48.275Z,12.60
2022-12-12T17:06:18.343Z,23.40
2022-12-12T17:09:50.816Z,13.70
2022-12-12T17:13:21.546Z,12.90
2022-12-12T17:16:53.870Z,10.10
2022-12-12T17:20:21.392Z,9.80
2022-12-12T17:23:49.903Z,10.30
2022-12-12T17:27:18.931Z,9.60
2022-12-12T17:31:03.094Z,9.30
2022-12-12T17:34:40.170Z,10.00
2022-12-12T17:38:16.347Z,8.80
2022-12-12T17:41:44.016Z,8.60
2022-12-12T17:45:14.440Z,11.70
2022-12-12T17:48:41.959Z,8.90
2022-12-12T17:52:09.747Z,10.10
2022-12-12T17:55:53.121Z,13.40
2022-12-12T17:59:23.253Z,9.60
2022-12-12T18:02:51.222Z,9.50
2022-12-12T18:06:21.762Z,12.70
2022-12-12T18:09:50.860Z,11.50
2022-12-12T18:13:17.944Z,15.10
2022-12-12T18:16:48.052Z,12.40
2022-12-12T18:20:41.210Z,10.90
2022-12-12T18:24:08.775Z,9.20
2022-12-12T18:27:40.381Z,8.40
2022-12-12T18:31:08.097Z,8.80
2022-12-12T18:34:35.607Z,10.00
2022-12-12T18:38:03.608Z,11.20
2022-12-12T18:41:37.811Z,15.80
2022-12-12T18:45:05.755Z,11.10
2022-12-12T18:48:41.025Z,14.50
2022-12-12T18:52:08.521Z,12.10
2022-12-12T18:55:45.274Z,12.70
2022-12-12T18:59:14.764Z,10.40
2022-12-12T19:02:45.996Z,9.90
2022-12-12T19:06:17.674Z,10.00
2022-12-12T19:09:49.795Z,10.10
2022-12-12T19:13:44.176Z,10.20
2022-12-12T19:17:14.623Z,10.70
2022-12-12T19:20:44.278Z,11.80
2022-12-12T19:24:13.821Z,9.80
2022-12-12T19:27:42.571Z,10.60
2022-12-12T19:31:19.366Z,10.00
2022-12-12T19:34:46.220Z,12.90
2022-12-12T19:38:13.312Z,10.30
2022-12-12T19:41:39.931Z,7.80
2022-12-12T19:45:10.148Z,8.00
2022-12-12T19:48:37.930Z,9.20
2022-12-12T19:52:12.169Z,12.00
2022-12-12T19:55:47.493Z,9.40
2022-12-12T19:59:16.675Z,11.40
2022-12-12T20:02:46.279Z,13.50
2022-12-12T20:06:14.567Z,14.60
2022-12-12T20:09:41.550Z,12.40
2022-12-12T20:13:08.355Z,10.80
2022-12-12T20:16:36.397Z,9.10
2022-12-12T20:20:08.249Z,10.50
2022-12-12T20:23:47.023Z,14.80
2022-12-12T20:27:17.378Z,15.90
2022-12-12T20:30:53.549Z,12.90
2022-12-12T20:34:25.912Z,9.70
2022-12-12T20:37:58.726Z,10.00
2022-12-12T20:41:30.207Z,13.00
2022-12-12T20:45:00.757Z,13.20
2022-12-12T20:48:31.912Z,11.00
2022-12-12T20:52:01.463Z,9.80
2022-12-12T20:55:30.333Z,8.90
2022-12-12T20:59:01.626Z,7.70
2022-12-12T21:02:30.463Z,9.40
2022-12-12T21:06:00.557Z,7.50
2022-12-12T21:09:28.392Z,7.60
2022-12-12T21:12:58.107Z,8.40
2022-12-12T21:16:30.287Z,8.60
2022-12-12T21:19:59.527Z,9.20
2022-12-12T21:23:33.841Z,9.00
2022-12-12T21:27:02.968Z,7.60
2022-12-12T21:30:35.370Z,8.40
2022-12-12T21:34:06.608Z,7.70
2022-12-12T21:37:40.415Z,7.90
2022-12-12T21:41:09.850Z,6.90
2022-12-12T21:44:38.976Z,7.80
2022-12-12T21:48:10.389Z,8.10
2022-12-12T21:51:38.824Z,5.40
2022-12-12T21:55:10.562Z,6.60
2022-12-12T21:58:38.805Z,7.80
2022-12-12T22:02:06.794Z,8.40
2022-12-12T22:05:35.391Z,8.70
2022-12-12T22:09:05.383Z,7.90
2022-12-12T22:12:36.570Z,6.90
2022-12-12T22:16:34.190Z,7.90
2022-12-12T22:20:07.520Z,6.50
2022-12-12T22:23:36.372Z,7.00
2022-12-12T22:27:21.377Z,6.40
2022-12-12T22:30:51.230Z,6.60
2022-12-12T22:34:20.028Z,8.40
2022-12-12T22:37:46.608Z,7.30
2022-12-12T22:41:16.192Z,8.90
2022-12-12T22:44:48.627Z,8.00
2022-12-12T22:48:16.192Z,8.70
2022-12-12T22:52:02.958Z,8.10
2022-12-12T22:55:42.007Z,7.10
2022-12-12T22:59:18.196Z,6.70
2022-12-12T23:02:46.939Z,6.40
2022-12-12T23:06:16.252Z,5.60
2022-12-12T23:09:52.838Z,5.80
2022-12-12T23:13:26.700Z,5.10
2022-12-12T23:16:58.165Z,4.80
2022-12-12T23:20:26.607Z,5.20
2022-12-12T23:23:57.219Z,4.70
2022-12-12T23:27:25.247Z,4.70
2022-12-12T23:30:54.770Z,5.20
2022-12-12T23:34:24.367Z,5.50
2022-12-12T23:37:53.688Z,5.90
2022-12-12T23:41:20.307Z,5.60
2022-12-12T23:44:57.822Z,5.80
2022-12-12T23:48:24.714Z,6.90
2022-12-12T23:51:54.447Z,6.20
2022-12-12T23:55:24.362Z,7.00
2022-12-12T23:58:51.577Z,6.60
